Time;durP1;ratioP1;P1;durP2;ratioP2;P2;SDS_P1;SDS_P2;PMS_P1;PMS_P2;Temp;Humidity;BMP_temperature;BMP_pressure;BME280_temperature;BME280_humidity;BME280_pressure;Samples;Min_cycle;Max_cycle;Signal;HPM_P1;HPM_P2
2023/10/19 00:01:15;;;;;;;20.87;18.67;;;11.40;99.90;;;;;;4971450;28;20439;-72
2023/10/19 00:03:43;;;;;;;19.33;17.37;;;11.40;99.90;;;;;;4982092;28;20519;-72
2023/10/19 00:06:10;;;;;;;21.00;18.57;;;11.40;99.90;;;;;;4976678;28;20474;-72
2023/10/19 00:08:42;;;;;;;18.90;17.13;;;11.40;99.90;;;;;;4978152;28;20432;-72
2023/10/19 00:11:09;;;;;;;20.40;16.07;;;11.40;99.90;;;;;;4959134;28;20451;-71
2023/10/19 00:13:38;;;;;;;15.27;13.93;;;11.50;99.90;;;;;;4982500;28;20840;-71
2023/10/19 00:16:29;;;;;;;16.57;14.87;;;11.50;99.90;;;;;;4987831;28;20440;-71
2023/10/19 00:18:52;;;;;;;14.80;13.20;;;11.60;99.90;;;;;;4971915;28;20451;-71
2023/10/19 00:21:23;;;;;;;15.43;13.40;;;11.70;99.90;;;;;;4974015;28;20443;-71
2023/10/19 00:23:55;;;;;;;14.30;12.77;;;11.70;99.90;;;;;;4981892;28;20470;-71
2023/10/19 00:26:20;;;;;;;13.33;11.10;;;11.80;99.90;;;;;;4985357;28;20460;-71
2023/10/19 00:28:49;;;;;;;11.30;10.20;;;11.80;99.90;;;;;;4973486;28;20431;-71
2023/10/19 00:31:15;;;;;;;9.97;8.97;;;11.90;99.90;;;;;;4971572;28;20630;-72
2023/10/19 00:33:41;;;;;;;10.30;9.23;;;11.90;99.90;;;;;;4983687;28;20534;-72
2023/10/19 00:36:08;;;;;;;11.47;9.73;;;12.00;99.90;;;;;;4977177;28;20267;-72
2023/10/19 00:41:06;;;;;;;9.47;8.57;;;12.00;99.90;;;;;;4989638;28;20450;-72
2023/10/19 00:43:45;;;;;;;10.23;9.23;;;12.10;99.90;;;;;;4982715;28;20517;-72
2023/10/19 00:46:20;;;;;;;10.90;8.90;;;12.10;99.90;;;;;;4986704;28;21055;-72
2023/10/19 00:48:58;;;;;;;13.03;9.30;;;12.10;99.90;;;;;;4958632;28;20446;-72
2023/10/19 00:57:22;;;;;;;10.00;9.10;;;12.20;99.90;;;;;;4978769;28;20443;-72
2023/10/19 01:00:00;;;;;;;10.83;9.73;;;12.20;99.90;;;;;;4981386;28;20446;-72
2023/10/19 01:04:56;;;;;;;12.73;11.20;;;12.10;99.90;;;;;;4985576;28;20530;-71
2023/10/19 01:07:27;;;;;;;10.87;9.70;;;12.20;99.90;;;;;;4976734;28;20203;-71
2023/10/19 01:09:56;;;;;;;10.90;9.90;;;12.20;99.90;;;;;;4973784;28;20469;-72
2023/10/19 01:12:25;;;;;;;11.17;10.07;;;12.30;99.90;;;;;;4981997;28;20459;-72
2023/10/19 01:15:07;;;;;;;11.97;9.33;;;12.30;99.90;;;;;;4989499;28;20438;-72
2023/10/19 01:17:40;;;;;;;10.53;9.50;;;12.30;99.90;;;;;;4980154;28;20450;-71
2023/10/19 01:21:03;;;;;;;11.00;9.90;;;12.30;99.90;;;;;;4977626;28;20795;-72
2023/10/19 01:33:57;;;;;;;10.73;9.63;;;12.40;99.90;;;;;;4974739;28;20438;-72
2023/10/19 01:38:53;;;;;;;11.17;10.03;;;12.50;99.90;;;;;;4990314;28;20931;-72
2023/10/19 01:41:19;;;;;;;10.80;9.57;;;12.60;99.90;;;;;;4977464;28;20904;-72
2023/10/19 01:43:46;;;;;;;14.03;10.17;;;12.60;99.90;;;;;;4979417;28;20468;-72
2023/10/19 01:46:13;;;;;;;11.03;9.93;;;12.60;99.90;;;;;;4978735;28;20235;-72
2023/10/19 01:48:40;;;;;;;11.50;10.40;;;12.60;99.90;;;;;;4979505;28;20473;-72
2023/10/19 01:51:10;;;;;;;14.00;10.10;;;12.60;99.90;;;;;;4985403;28;20481;-72
2023/10/19 01:53:39;;;;;;;10.53;9.40;;;12.70;99.90;;;;;;4977065;28;20461;-72
2023/10/19 01:56:09;;;;;;;11.47;10.37;;;12.70;99.90;;;;;;4988140;28;20450;-72
2023/10/19 01:58:37;;;;;;;10.83;9.73;;;12.70;99.90;;;;;;4986914;28;20443;-72
2023/10/19 02:03:43;;;;;;;11.60;10.40;;;12.80;99.90;;;;;;4978574;28;20474;-72
2023/10/19 02:06:16;;;;;;;16.30;11.10;;;12.80;99.90;;;;;;4986558;28;20459;-72
2023/10/19 02:08:48;;;;;;;12.37;10.07;;;12.80;99.90;;;;;;4975744;28;20442;-72
2023/10/19 02:11:17;;;;;;;15.30;9.50;;;12.80;99.90;;;;;;4968901;28;20477;-72
2023/10/19 02:13:46;;;;;;;13.20;9.60;;;12.80;99.90;;;;;;4978988;28;20549;-72
2023/10/19 02:16:13;;;;;;;11.70;9.77;;;12.80;99.90;;;;;;4992121;28;20450;-72
2023/10/19 02:18:39;;;;;;;12.33;8.90;;;12.80;99.90;;;;;;4975917;28;20427;-72
2023/10/19 02:21:06;;;;;;;11.73;9.40;;;12.80;99.90;;;;;;4975600;28;20439;-72
2023/10/19 02:23:34;;;;;;;12.77;9.40;;;12.80;99.90;;;;;;4976565;28;20597;-72
2023/10/19 02:26:00;;;;;;;12.40;9.17;;;12.80;99.90;;;;;;4993826;28;20501;-71
2023/10/19 02:28:31;;;;;;;10.23;8.47;;;12.80;99.90;;;;;;4975196;28;20431;-72
2023/10/19 02:30:57;;;;;;;11.50;9.27;;;12.70;99.90;;;;;;4975497;28;20800;-69
2023/10/19 02:33:22;;;;;;;9.37;8.47;;;12.70;99.90;;;;;;4971898;28;20463;-72
2023/10/19 02:35:48;;;;;;;9.30;8.23;;;12.70;99.90;;;;;;4981692;28;20207;-72
2023/10/19 02:38:13;;;;;;;9.30;8.37;;;12.70;99.90;;;;;;4990189;28;20246;-69
2023/10/19 02:40:39;;;;;;;8.93;8.07;;;12.60;99.90;;;;;;4983842;28;20242;-71
2023/10/19 02:43:05;;;;;;;11.00;8.87;;;12.60;99.90;;;;;;4975569;28;20204;-72
2023/10/19 02:45:31;;;;;;;15.07;8.73;;;12.60;99.90;;;;;;4991010;28;20203;-70
2023/10/19 02:47:58;;;;;;;10.03;9.03;;;12.60;99.90;;;;;;4973787;28;20446;-72
2023/10/19 02:50:26;;;;;;;8.63;7.80;;;12.60;99.90;;;;;;4981854;28;20184;-71
2023/10/19 02:52:53;;;;;;;9.93;8.70;;;12.60;99.90;;;;;;4973507;28;20968;-71
2023/10/19 02:55:20;;;;;;;11.30;10.13;;;12.60;99.90;;;;;;4975218;28;20439;-71
2023/10/19 02:57:46;;;;;;;11.13;8.60;;;12.60;99.90;;;;;;4984459;28;20424;-71
2023/10/19 03:00:13;;;;;;;9.10;8.20;;;12.60;99.90;;;;;;4974541;28;20435;-71
2023/10/19 03:02:39;;;;;;;9.73;7.73;;;12.50;99.90;;;;;;4973378;28;20200;-71
2023/10/19 03:05:14;;;;;;;10.67;8.70;;;12.50;99.90;;;;;;4970238;28;20446;-69
2023/10/19 03:07:44;;;;;;;10.63;7.93;;;12.40;99.90;;;;;;4976000;28;20445;-71
2023/10/19 03:10:23;;;;;;;11.00;7.87;;;12.40;99.90;;;;;;4987456;28;20439;-71
2023/10/19 03:12:50;;;;;;;8.23;7.43;;;12.40;99.90;;;;;;4969827;28;22354;-71
2023/10/19 03:15:16;;;;;;;9.80;7.90;;;12.40;99.90;;;;;;4981578;28;20447;-71
2023/10/19 03:17:42;;;;;;;11.33;8.27;;;12.30;99.90;;;;;;4979483;28;20431;-71
2023/10/19 03:20:10;;;;;;;9.40;8.50;;;12.30;99.90;;;;;;4989307;28;20445;-71
2023/10/19 03:22:38;;;;;;;8.40;7.57;;;12.30;99.90;;;;;;4983658;28;20478;-71
2023/10/19 03:27:49;;;;;;;10.40;8.20;;;12.20;99.90;;;;;;4975915;28;20443;-71
2023/10/19 03:30:16;;;;;;;10.00;8.23;;;12.30;99.90;;;;;;4973338;28;20929;-71
2023/10/19 03:32:41;;;;;;;9.60;8.70;;;12.20;99.90;;;;;;4981996;28;20231;-71
2023/10/19 03:35:07;;;;;;;10.53;9.63;;;12.20;99.90;;;;;;4973112;28;20965;-71
2023/10/19 03:37:35;;;;;;;8.50;7.80;;;12.20;99.90;;;;;;4979854;28;20184;-71
2023/10/19 03:40:06;;;;;;;10.33;8.20;;;12.10;99.90;;;;;;4974183;28;20709;-71
2023/10/19 03:42:40;;;;;;;9.90;8.10;;;12.10;99.90;;;;;;4974694;28;20520;-71
2023/10/19 03:45:13;;;;;;;11.47;8.50;;;12.10;99.90;;;;;;4987974;28;20463;-72
2023/10/19 03:47:39;;;;;;;10.07;9.17;;;12.10;99.90;;;;;;4979610;28;20434;-71
2023/10/19 03:50:13;;;;;;;12.30;8.17;;;12.10;99.90;;;;;;4985046;28;20459;-71
2023/10/19 03:52:39;;;;;;;11.30;7.40;;;12.10;99.90;;;;;;4972686;28;20465;-71
2023/10/19 03:55:11;;;;;;;9.40;8.50;;;12.10;99.90;;;;;;4979537;28;20434;-71
2023/10/19 03:57:41;;;;;;;11.20;8.67;;;12.10;99.90;;;;;;4982541;28;20220;-71
2023/10/19 04:00:11;;;;;;;9.17;8.27;;;12.10;99.90;;;;;;4986982;28;20426;-71
2023/10/19 04:02:38;;;;;;;9.97;7.93;;;12.10;99.90;;;;;;4973392;28;21227;-71
2023/10/19 04:05:04;;;;;;;8.83;7.87;;;12.10;99.90;;;;;;4987639;28;20430;-71
2023/10/19 04:07:31;;;;;;;9.50;8.40;;;12.20;99.90;;;;;;4983675;28;20475;-71
2023/10/19 04:12:43;;;;;;;8.70;8.00;;;12.20;99.90;;;;;;4961651;28;20533;-71
2023/10/19 04:15:16;;;;;;;10.67;9.30;;;12.30;99.90;;;;;;4971645;28;20435;-71
2023/10/19 04:17:43;;;;;;;10.13;8.77;;;12.20;99.90;;;;;;4979174;28;20485;-71
2023/10/19 04:22:45;;;;;;;8.50;7.70;;;12.20;99.90;;;;;;4975978;28;20458;-71
2023/10/19 04:25:12;;;;;;;10.03;8.70;;;12.30;99.90;;;;;;4980567;28;20512;-71
2023/10/19 04:27:39;;;;;;;9.50;8.60;;;12.30;99.90;;;;;;4978422;28;20964;-71
2023/10/19 04:30:15;;;;;;;10.40;9.07;;;12.30;99.90;;;;;;4991017;28;20435;-71
2023/10/19 04:32:41;;;;;;;10.40;9.50;;;12.30;99.90;;;;;;4972777;28;20941;-71
2023/10/19 04:35:09;;;;;;;9.33;8.33;;;12.30;99.90;;;;;;4970538;28;20810;-71
2023/10/19 04:37:35;;;;;;;10.93;9.90;;;12.30;99.90;;;;;;4974665;28;20457;-71
2023/10/19 04:40:00;;;;;;;9.93;8.90;;;12.30;99.90;;;;;;4991373;28;20866;-71
2023/10/19 04:42:27;;;;;;;8.60;7.80;;;12.30;99.90;;;;;;4980600;28;20196;-71
2023/10/19 04:44:54;;;;;;;9.07;7.50;;;12.30;99.90;;;;;;4980832;28;20884;-71
2023/10/19 04:47:19;;;;;;;9.83;9.03;;;12.30;99.90;;;;;;4983599;28;20544;-71
2023/10/19 04:49:45;;;;;;;11.50;8.17;;;12.30;99.90;;;;;;4979248;28;20957;-71
2023/10/19 04:52:10;;;;;;;8.60;7.73;;;12.40;99.90;;;;;;4988743;28;20203;-71
2023/10/19 04:54:37;;;;;;;9.20;8.33;;;12.40;99.90;;;;;;4967867;28;20179;-71
2023/10/19 04:57:03;;;;;;;10.47;7.10;;;12.40;99.90;;;;;;4983976;28;20270;-71
2023/10/19 04:59:32;;;;;;;9.50;8.17;;;12.40;99.90;;;;;;4986454;28;20518;-72
2023/10/19 05:02:00;;;;;;;10.93;7.53;;;12.30;99.90;;;;;;4982540;28;20199;-71
2023/10/19 05:04:27;;;;;;;9.23;8.33;;;12.30;99.90;;;;;;4992153;28;20832;-71
2023/10/19 05:06:53;;;;;;;9.97;7.77;;;12.40;99.90;;;;;;4981691;28;20463;-71
2023/10/19 05:09:19;;;;;;;8.53;7.73;;;12.30;99.90;;;;;;4972863;28;20474;-71
2023/10/19 05:11:45;;;;;;;8.00;7.30;;;12.30;99.90;;;;;;4985319;28;20194;-71
2023/10/19 05:14:13;;;;;;;8.33;7.53;;;12.30;99.90;;;;;;4975634;28;20180;-71
2023/10/19 05:16:42;;;;;;;7.40;6.63;;;12.30;99.90;;;;;;4975548;28;20470;-71
2023/10/19 05:19:07;;;;;;;8.07;7.07;;;12.40;99.90;;;;;;4990359;28;20427;-71
2023/10/19 05:21:34;;;;;;;9.00;7.83;;;12.40;99.90;;;;;;4982702;28;20438;-71
2023/10/19 05:24:00;;;;;;;11.73;8.73;;;12.40;99.90;;;;;;4989953;28;20253;-71
2023/10/19 05:26:27;;;;;;;12.20;7.33;;;12.40;99.90;;;;;;4981128;28;20472;-70
2023/10/19 05:28:54;;;;;;;9.60;8.37;;;12.40;99.90;;;;;;4986162;28;20414;-70
2023/10/19 05:31:19;;;;;;;10.80;9.07;;;12.50;99.90;;;;;;4978011;28;20438;-70
2023/10/19 05:33:48;;;;;;;9.40;8.47;;;12.40;99.90;;;;;;4980017;28;20455;-70
2023/10/19 05:36:14;;;;;;;10.97;9.33;;;12.50;99.90;;;;;;4970369;28;20184;-70
2023/10/19 05:38:40;;;;;;;14.30;8.83;;;12.40;99.90;;;;;;4991774;28;20425;-70
2023/10/19 05:41:05;;;;;;;13.73;12.30;;;12.40;99.90;;;;;;4974853;28;20483;-70
2023/10/19 05:43:31;;;;;;;11.33;9.40;;;12.50;99.90;;;;;;4972325;28;20211;-70
2023/10/19 05:45:56;;;;;;;10.60;8.37;;;12.40;99.90;;;;;;4974267;28;20297;-71
2023/10/19 05:48:23;;;;;;;10.83;8.17;;;12.40;99.90;;;;;;4983659;28;20246;-70
2023/10/19 05:50:49;;;;;;;9.10;8.20;;;12.40;99.90;;;;;;4985235;28;20215;-71
2023/10/19 05:53:18;;;;;;;9.70;8.80;;;12.40;99.90;;;;;;4994662;28;20501;-71
2023/10/19 05:55:44;;;;;;;9.83;8.93;;;12.40;99.90;;;;;;4980449;28;20196;-70
2023/10/19 05:58:10;;;;;;;10.63;8.10;;;12.40;99.90;;;;;;4991031;28;20512;-71
2023/10/19 06:00:35;;;;;;;9.67;8.77;;;12.50;99.90;;;;;;4991784;28;20446;-71
2023/10/19 06:03:01;;;;;;;8.40;7.70;;;12.50;99.90;;;;;;4990232;28;20669;-70
2023/10/19 06:05:27;;;;;;;13.53;9.90;;;12.50;99.90;;;;;;4983198;28;20207;-70
2023/10/19 06:07:53;;;;;;;11.07;9.97;;;12.50;99.90;;;;;;4982695;28;20466;-70
2023/10/19 06:10:20;;;;;;;12.60;11.27;;;12.50;99.90;;;;;;4982343;28;20173;-71
2023/10/19 06:12:47;;;;;;;11.90;11.00;;;12.50;99.90;;;;;;4986124;28;20200;-71
2023/10/19 06:15:14;;;;;;;9.37;8.47;;;12.40;99.90;;;;;;4984169;28;20434;-71
2023/10/19 06:17:40;;;;;;;11.60;10.50;;;12.50;99.90;;;;;;4972599;28;21035;-70
2023/10/19 06:20:19;;;;;;;8.40;7.60;;;12.50;99.90;;;;;;4978088;28;20964;-70
2023/10/19 06:22:50;;;;;;;8.87;7.20;;;12.50;99.90;;;;;;4975280;28;20816;-70
2023/10/19 06:25:21;;;;;;;10.67;9.77;;;12.60;99.90;;;;;;4975137;28;20447;-70
2023/10/19 06:27:47;;;;;;;10.83;8.17;;;12.60;99.90;;;;;;4985390;28;20517;-74
2023/10/19 06:30:21;;;;;;;8.40;7.60;;;12.60;99.90;;;;;;4985992;28;20432;-68
2023/10/19 06:32:52;;;;;;;13.03;7.77;;;12.60;99.90;;;;;;4967532;28;20458;-70
2023/10/19 06:35:18;;;;;;;7.83;7.13;;;12.60;99.90;;;;;;4974303;28;20455;-70
2023/10/19 06:37:44;;;;;;;12.73;8.83;;;12.70;99.90;;;;;;4976298;28;20434;-70
2023/10/19 06:40:17;;;;;;;11.00;7.50;;;12.80;99.90;;;;;;4973379;28;20514;-71
2023/10/19 06:42:46;;;;;;;8.90;8.00;;;12.90;99.90;;;;;;4971172;28;20451;-72
2023/10/19 06:45:16;;;;;;;8.23;7.30;;;13.00;99.90;;;;;;4957221;28;20416;-71
2023/10/19 06:47:46;;;;;;;9.13;8.33;;;13.00;99.90;;;;;;4972662;28;20802;-71
2023/10/19 06:50:15;;;;;;;12.03;8.00;;;13.10;99.90;;;;;;4984476;28;20435;-70
2023/10/19 06:52:42;;;;;;;7.60;6.80;;;13.10;99.90;;;;;;4977694;28;20789;-69
2023/10/19 06:55:13;;;;;;;8.67;6.80;;;13.20;99.90;;;;;;4974064;28;20463;-69
2023/10/19 06:57:49;;;;;;;8.67;6.87;;;13.20;99.90;;;;;;4978711;28;20967;-69
2023/10/19 07:00:19;;;;;;;8.37;7.30;;;13.20;99.90;;;;;;4984944;28;20419;-69
2023/10/19 07:02:49;;;;;;;9.00;8.10;;;13.20;99.90;;;;;;4967871;28;20462;-70
2023/10/19 07:05:18;;;;;;;12.57;7.97;;;13.20;99.90;;;;;;4994230;28;20517;-70
2023/10/19 07:07:44;;;;;;;12.60;8.03;;;13.30;99.90;;;;;;4993968;28;20526;-70
2023/10/19 07:10:12;;;;;;;9.17;8.27;;;13.30;99.90;;;;;;4986896;28;20446;-70
2023/10/19 07:12:42;;;;;;;8.47;7.77;;;13.30;99.90;;;;;;4974367;28;20451;-70
2023/10/19 07:15:13;;;;;;;8.27;7.40;;;13.30;99.90;;;;;;4974618;28;20445;-70
2023/10/19 07:17:42;;;;;;;9.73;8.77;;;13.40;99.90;;;;;;4974153;28;20432;-70
2023/10/19 07:20:21;;;;;;;8.67;7.90;;;13.40;99.90;;;;;;4974269;28;20443;-70
2023/10/19 07:22:47;;;;;;;8.93;7.63;;;13.40;99.90;;;;;;4974143;28;20467;-69
2023/10/19 07:25:13;;;;;;;9.23;7.83;;;13.50;99.90;;;;;;4974710;28;21019;-70
2023/10/19 07:27:42;;;;;;;9.37;7.83;;;13.50;99.90;;;;;;4974421;28;20239;-70
2023/10/19 07:30:09;;;;;;;8.70;8.00;;;13.60;99.90;;;;;;4974310;28;20190;-69
2023/10/19 07:32:35;;;;;;;11.33;10.30;;;13.70;99.90;;;;;;4973986;28;20442;-69
2023/10/19 07:35:00;;;;;;;10.30;9.40;;;13.70;99.90;;;;;;4974357;28;20514;-69
2023/10/19 07:37:27;;;;;;;10.43;9.43;;;13.80;99.90;;;;;;4974300;28;20796;-70
2023/10/19 07:39:56;;;;;;;9.07;8.23;;;13.80;99.90;;;;;;4974033;28;20199;-70
2023/10/19 07:42:22;;;;;;;10.70;9.40;;;14.00;99.90;;;;;;4974156;28;20453;-70
2023/10/19 07:44:47;;;;;;;10.53;9.53;;;14.10;99.90;;;;;;4973952;28;20423;-69
2023/10/19 07:47:13;;;;;;;11.10;10.00;;;14.20;99.90;;;;;;4973707;28;20211;-68
2023/10/19 07:49:39;;;;;;;8.40;7.50;;;14.40;99.90;;;;;;4974045;28;20207;-70
2023/10/19 07:52:10;;;;;;;13.30;12.00;;;14.50;99.90;;;;;;4974177;28;20206;-70
2023/10/19 07:54:35;;;;;;;10.40;8.80;;;14.70;99.90;;;;;;4973797;28;20175;-70
2023/10/19 07:57:07;;;;;;;9.40;7.53;;;14.90;99.90;;;;;;4973887;28;20569;-70
2023/10/19 07:59:33;;;;;;;8.37;7.67;;;14.90;99.90;;;;;;4973822;28;20191;-70
2023/10/19 08:02:02;;;;;;;11.27;10.13;;;15.00;99.90;;;;;;4973734;28;20443;-67
2023/10/19 08:04:28;;;;;;;14.33;12.00;;;14.90;99.90;;;;;;4973635;28;20176;-68
2023/10/19 08:06:55;;;;;;;10.10;9.03;;;15.10;99.90;;;;;;4973355;28;20862;-68
2023/10/19 08:09:22;;;;;;;8.87;8.07;;;15.10;99.90;;;;;;4973318;28;20424;-67
2023/10/19 08:11:49;;;;;;;10.40;8.63;;;15.20;99.90;;;;;;4973589;28;20435;-70
2023/10/19 08:14:14;;;;;;;9.23;8.00;;;15.30;99.90;;;;;;4973149;28;20428;-69
2023/10/19 08:16:41;;;;;;;10.30;8.97;;;15.50;99.90;;;;;;4973615;28;20424;-67
2023/10/19 08:19:07;;;;;;;9.43;8.60;;;15.60;99.90;;;;;;4973345;28;20184;-69
2023/10/19 08:21:34;;;;;;;10.47;8.90;;;16.10;99.90;;;;;;4973410;28;20432;-67
2023/10/19 08:24:04;;;;;;;10.20;8.20;;;16.80;99.90;;;;;;4972784;28;20184;-70
2023/10/19 08:26:30;;;;;;;9.23;6.83;;;17.60;99.90;;;;;;4973478;28;20554;-68
2023/10/19 08:28:55;;;;;;;7.80;7.10;;;18.10;99.90;;;;;;4972935;28;20506;-67
2023/10/19 08:31:21;;;;;;;8.33;7.60;;;17.90;99.90;;;;;;4973606;28;20430;-67
2023/10/19 08:33:47;;;;;;;8.00;7.30;;;18.10;99.90;;;;;;4972783;28;20211;-68
2023/10/19 08:36:19;;;;;;;7.60;6.97;;;18.70;99.90;;;;;;4973251;28;20211;-68
2023/10/19 08:38:45;;;;;;;8.60;7.47;;;19.00;99.90;;;;;;4973329;28;20952;-68
2023/10/19 08:41:11;;;;;;;7.40;6.70;;;18.90;99.90;;;;;;4973376;28;20437;-68
2023/10/19 08:43:39;;;;;;;7.03;6.43;;;19.10;99.90;;;;;;4972474;28;20890;-67
2023/10/19 08:46:05;;;;;;;8.63;7.83;;;19.30;99.90;;;;;;4973122;28;20717;-68
2023/10/19 08:48:34;;;;;;;8.03;7.33;;;19.40;99.90;;;;;;4973239;28;20420;-68
2023/10/19 08:51:03;;;;;;;8.47;7.30;;;19.70;99.90;;;;;;4973124;28;20491;-68
2023/10/19 08:53:30;;;;;;;8.40;7.33;;;20.50;99.90;;;;;;4972681;28;20915;-69
2023/10/19 08:55:56;;;;;;;7.37;5.90;;;21.20;99.90;;;;;;4953778;29;20425;-68
2023/10/19 08:58:23;;;;;;;10.67;6.73;;;21.50;99.90;;;;;;4953698;29;20428;-68
2023/10/19 09:00:53;;;;;;;12.77;7.63;;;22.00;99.90;;;;;;4953758;29;20430;-67
2023/10/19 09:03:19;;;;;;;8.83;6.57;;;22.30;99.90;;;;;;4953590;28;20451;-68
2023/10/19 09:05:46;;;;;;;6.87;6.27;;;22.50;99.90;;;;;;4971573;28;20470;-68
2023/10/19 09:08:18;;;;;;;6.20;5.60;;;22.30;99.90;;;;;;4972985;28;20424;-68
2023/10/19 09:10:46;;;;;;;6.13;5.57;;;22.50;99.90;;;;;;4972923;28;20472;-68
2023/10/19 09:13:12;;;;;;;6.07;5.47;;;21.50;99.90;;;;;;4972508;28;20447;-70
2023/10/19 09:15:39;;;;;;;7.93;7.27;;;21.70;99.90;;;;;;4972639;28;20511;-68
2023/10/19 09:18:18;;;;;;;6.47;4.50;;;21.80;99.90;;;;;;4972884;28;20780;-68
2023/10/19 09:23:47;;;;;;;6.93;6.33;;;21.10;99.90;;;;;;4964091;28;20474;-68
2023/10/19 09:26:13;;;;;;;8.57;7.63;;;20.60;99.90;;;;;;4976699;28;20475;-67
2023/10/19 09:28:39;;;;;;;5.97;5.40;;;20.90;99.90;;;;;;4976642;28;20184;-67
2023/10/19 09:31:05;;;;;;;6.70;6.07;;;21.40;99.90;;;;;;4976689;28;20558;-68
2023/10/19 09:33:33;;;;;;;6.80;6.20;;;21.50;99.90;;;;;;4976121;28;20443;-68
2023/10/19 09:36:12;;;;;;;8.40;6.03;;;21.60;99.90;;;;;;4976340;28;20451;-68
2023/10/19 09:38:39;;;;;;;5.37;4.87;;;22.20;99.90;;;;;;4976588;28;20474;-69
2023/10/19 09:41:08;;;;;;;6.17;5.77;;;23.40;99.90;;;;;;4976589;28;20427;-69
2023/10/19 09:43:38;;;;;;;5.83;5.17;;;23.80;99.90;;;;;;4975924;28;20446;-68
2023/10/19 09:46:08;;;;;;;5.23;4.73;;;23.70;99.90;;;;;;4975991;28;21108;-68
2023/10/19 09:48:41;;;;;;;6.50;5.90;;;23.30;99.90;;;;;;4976404;28;20454;-68
2023/10/19 09:51:09;;;;;;;5.80;5.30;;;22.80;99.90;;;;;;4976333;28;20502;-67
2023/10/19 09:53:35;;;;;;;6.70;6.13;;;22.10;99.90;;;;;;4958549;28;21003;-67
2023/10/19 09:56:06;;;;;;;7.80;7.00;;;21.30;99.90;;;;;;4976068;28;20443;-67
2023/10/19 09:58:40;;;;;;;9.90;9.00;;;20.70;99.90;;;;;;4975942;28;20427;-68
2023/10/19 10:01:11;;;;;;;7.20;6.70;;;20.00;99.90;;;;;;4975944;28;20418;-68
2023/10/19 10:03:51;;;;;;;7.90;7.10;;;19.50;99.90;;;;;;4975717;28;20447;-70
2023/10/19 10:06:38;;;;;;;8.77;7.93;;;19.00;99.90;;;;;;4975250;28;20478;-69
2023/10/19 10:09:04;;;;;;;9.13;8.33;;;18.80;99.90;;;;;;4965515;28;20431;-67
2023/10/19 10:11:29;;;;;;;10.20;9.07;;;18.40;99.90;;;;;;4975731;28;20432;-67
2023/10/19 10:13:57;;;;;;;11.03;9.93;;;17.90;99.90;;;;;;4975673;28;20931;-67
2023/10/19 10:16:28;;;;;;;12.37;10.70;;;17.70;99.90;;;;;;4972148;28;20184;-69
2023/10/19 10:18:58;;;;;;;11.67;10.37;;;17.60;99.90;;;;;;4973841;28;20947;-69
2023/10/19 10:21:24;;;;;;;13.87;11.43;;;17.50;99.90;;;;;;4975735;28;20494;-69
2023/10/19 10:23:59;;;;;;;16.03;12.17;;;17.70;99.90;;;;;;4975270;28;20554;-66
2023/10/19 10:26:29;;;;;;;13.00;11.70;;;17.90;99.90;;;;;;4960533;28;20223;-67
2023/10/19 10:29:19;;;;;;;12.23;11.17;;;18.00;99.90;;;;;;4975442;28;20432;-67
2023/10/19 10:31:46;;;;;;;12.27;11.23;;;18.30;99.90;;;;;;4974597;28;20466;-70
2023/10/19 10:34:33;;;;;;;12.27;11.33;;;18.40;99.90;;;;;;4974998;28;20428;-69
2023/10/19 10:37:08;;;;;;;13.33;12.13;;;18.00;99.90;;;;;;4963843;28;20546;-67
2023/10/19 10:39:37;;;;;;;15.07;13.73;;;17.70;99.90;;;;;;4975322;28;20433;-68
2023/10/19 10:42:05;;;;;;;15.57;13.77;;;17.40;99.90;;;;;;4957807;28;20462;-66
2023/10/19 10:44:47;;;;;;;14.00;12.80;;;17.20;99.90;;;;;;4974681;28;20454;-68
2023/10/19 10:47:16;;;;;;;14.23;13.00;;;17.10;99.90;;;;;;4974654;28;20456;-69
2023/10/19 10:49:59;;;;;;;13.60;12.30;;;17.00;99.90;;;;;;4974031;28;20445;-69
2023/10/19 10:52:33;;;;;;;15.60;14.20;;;17.00;99.90;;;;;;4973618;28;20471;-68
2023/10/19 10:55:11;;;;;;;14.40;13.20;;;17.10;99.90;;;;;;4975172;28;20427;-68
2023/10/19 10:57:37;;;;;;;8.23;7.57;;;17.10;99.90;;;;;;4979689;28;20514;-67
2023/10/19 11:00:15;;;;;;;7.67;6.63;;;17.20;99.90;;;;;;4971618;28;20440;-69
2023/10/19 11:02:42;;;;;;;10.20;3.87;;;17.30;99.90;;;;;;4972045;28;21043;-68
2023/10/19 11:05:11;;;;;;;6.43;3.10;;;17.30;99.90;;;;;;4971373;28;20797;-69
2023/10/19 11:07:38;;;;;;;3.03;2.70;;;17.30;99.90;;;;;;4973641;28;20460;-70
2023/10/19 11:10:03;;;;;;;3.90;3.40;;;17.30;99.90;;;;;;4973643;28;20416;-69
2023/10/19 11:12:29;;;;;;;3.67;3.37;;;17.20;99.90;;;;;;4973579;28;20848;-69
2023/10/19 11:15:09;;;;;;;3.83;3.47;;;17.10;99.90;;;;;;4973159;28;20243;-70
2023/10/19 11:17:43;;;;;;;4.33;3.60;;;16.90;99.90;;;;;;4973281;28;20727;-69
2023/10/19 11:20:14;;;;;;;4.30;4.00;;;16.70;99.90;;;;;;4971269;28;20463;-69
2023/10/19 11:22:48;;;;;;;5.13;3.90;;;16.50;99.90;;;;;;4971843;28;20470;-69
2023/10/19 11:25:27;;;;;;;3.67;3.20;;;16.40;99.90;;;;;;4962892;28;20868;-70
2023/10/19 11:27:54;;;;;;;3.97;3.57;;;16.20;99.90;;;;;;4974540;28;20427;-69
2023/10/19 11:30:29;;;;;;;3.53;3.23;;;16.20;99.90;;;;;;4974425;28;20424;-69
2023/10/19 11:33:01;;;;;;;4.03;3.63;;;16.10;99.90;;;;;;4972392;28;20521;-69
2023/10/19 11:35:30;;;;;;;3.60;3.30;;;16.00;99.90;;;;;;4972470;28;20447;-69
2023/10/19 11:37:57;;;;;;;4.43;4.03;;;15.90;99.90;;;;;;4972667;28;20498;-69
2023/10/19 11:40:23;;;;;;;4.80;4.37;;;15.90;99.90;;;;;;4972660;28;20443;-70
2023/10/19 11:42:50;;;;;;;5.40;4.47;;;15.90;99.90;;;;;;4971520;28;20455;-69
2023/10/19 11:45:16;;;;;;;19.10;5.77;;;15.90;99.90;;;;;;4973809;28;20490;-69
2023/10/19 11:47:45;;;;;;;6.20;4.50;;;15.90;99.90;;;;;;4973877;28;20985;-69
2023/10/19 11:50:15;;;;;;;4.23;3.93;;;16.00;99.90;;;;;;4973011;28;20168;-69
2023/10/19 11:52:45;;;;;;;5.80;4.23;;;16.10;99.90;;;;;;4973138;28;20451;-69
2023/10/19 11:55:13;;;;;;;6.67;5.97;;;16.10;99.90;;;;;;4972555;28;20475;-69
2023/10/19 11:57:40;;;;;;;7.43;6.70;;;16.10;99.90;;;;;;4972810;28;20494;-69
2023/10/19 12:00:09;;;;;;;10.23;6.77;;;16.10;99.90;;;;;;4973494;28;20436;-70
2023/10/19 12:02:37;;;;;;;6.17;5.57;;;16.20;99.90;;;;;;4973626;28;20435;-67
2023/10/19 12:05:04;;;;;;;6.90;5.00;;;16.20;99.90;;;;;;4973691;28;20960;-68
2023/10/19 12:07:31;;;;;;;4.90;4.30;;;16.20;99.90;;;;;;4973038;28;20495;-69
2023/10/19 12:09:58;;;;;;;5.30;4.80;;;16.10;99.90;;;;;;4973775;28;20427;-69
2023/10/19 12:12:23;;;;;;;5.73;5.00;;;16.00;99.90;;;;;;4973670;28;20443;-69
2023/10/19 12:14:50;;;;;;;7.30;5.07;;;15.80;99.90;;;;;;4973348;28;20199;-70
2023/10/19 12:17:17;;;;;;;8.43;5.27;;;15.80;99.90;;;;;;4973735;28;20795;-70
2023/10/19 12:19:43;;;;;;;5.67;5.17;;;15.80;99.90;;;;;;4973441;28;20514;-70
2023/10/19 12:22:08;;;;;;;9.30;6.00;;;15.70;99.90;;;;;;4973222;28;20488;-69
2023/10/19 12:24:34;;;;;;;10.97;6.10;;;15.70;99.90;;;;;;4973099;28;20192;-70
2023/10/19 12:26:59;;;;;;;6.93;6.20;;;15.70;99.90;;;;;;4973356;28;20228;-70
2023/10/19 12:29:25;;;;;;;6.43;5.83;;;15.70;99.90;;;;;;4973519;28;20174;-69
2023/10/19 12:31:51;;;;;;;5.70;5.23;;;15.70;99.90;;;;;;4973368;28;20192;-69
2023/10/19 12:34:16;;;;;;;7.67;7.07;;;15.60;99.90;;;;;;4973148;28;20172;-70
2023/10/19 12:36:44;;;;;;;6.17;5.67;;;15.70;99.90;;;;;;4972911;28;20185;-70
2023/10/19 12:39:16;;;;;;;5.60;5.13;;;15.60;99.90;;;;;;4973369;28;20172;-69
2023/10/19 12:41:41;;;;;;;5.40;4.80;;;15.60;99.90;;;;;;4973121;28;20436;-70
2023/10/19 12:44:12;;;;;;;6.10;4.63;;;15.50;99.90;;;;;;4973133;28;20423;-69
2023/10/19 12:46:37;;;;;;;6.37;5.00;;;15.50;99.90;;;;;;4973079;28;20569;-69
2023/10/19 12:49:08;;;;;;;6.77;6.10;;;15.50;99.90;;;;;;4973241;28;20499;-69
2023/10/19 12:51:34;;;;;;;7.53;6.83;;;15.50;99.90;;;;;;4973104;28;20164;-70
2023/10/19 12:54:03;;;;;;;7.87;6.50;;;15.40;99.90;;;;;;4972247;28;20432;-69
2023/10/19 12:56:28;;;;;;;7.93;7.13;;;15.40;99.90;;;;;;4973071;28;20176;-70
2023/10/19 12:58:54;;;;;;;7.93;7.13;;;15.40;99.90;;;;;;4973156;28;20420;-69
2023/10/19 13:01:21;;;;;;;10.07;9.03;;;15.50;99.90;;;;;;4973133;28;20200;-69
2023/10/19 13:03:49;;;;;;;11.10;8.20;;;15.50;99.90;;;;;;4972582;28;20285;-69
2023/10/19 13:06:15;;;;;;;11.30;10.20;;;15.50;99.90;;;;;;4972978;28;20816;-69
2023/10/19 13:08:41;;;;;;;14.87;13.40;;;15.50;99.90;;;;;;4973018;28;20428;-69
2023/10/19 13:11:07;;;;;;;15.90;14.20;;;15.50;99.90;;;;;;4972990;28;20416;-69
2023/10/19 13:13:36;;;;;;;15.50;14.07;;;15.50;99.90;;;;;;4972388;28;20440;-69
2023/10/19 13:16:05;;;;;;;16.70;15.10;;;15.50;99.90;;;;;;4972637;28;20531;-70
2023/10/19 13:18:34;;;;;;;16.80;15.10;;;15.50;99.90;;;;;;4973208;28;20925;-70
2023/10/19 13:21:04;;;;;;;15.20;13.70;;;15.60;99.90;;;;;;4972839;28;20789;-68
2023/10/19 13:23:32;;;;;;;17.53;15.73;;;15.70;99.90;;;;;;4972319;28;20463;-69
2023/10/19 13:28:33;;;;;;;15.03;13.63;;;15.70;99.90;;;;;;4972937;28;21013;-69